Time;durP1;ratioP1;P1;durP2;ratioP2;P2;SDS_P1;SDS_P2;PMS_P1;PMS_P2;Temp;Humidity;BMP_temperature;BMP_pressure;BME280_temperature;BME280_humidity;BME280_pressure;Samples;Min_cycle;Max_cycle;Signal;HPM_P1;HPM_P2
2021/08/13 00:00:00;;;;;;;10.33;7.30;;;20.60;99.90;;;;;;5025327;28;20158;-80
2021/08/13 00:02:25;;;;;;;12.37;9.23;;;20.60;99.90;;;;;;5019080;28;20165;-82
2021/08/13 00:04:51;;;;;;;13.10;9.53;;;20.50;99.90;;;;;;5017765;28;20166;-82
2021/08/13 00:07:17;;;;;;;12.40;9.37;;;20.40;99.90;;;;;;5018551;28;20161;-82
2021/08/13 00:09:42;;;;;;;9.57;8.67;;;20.30;99.90;;;;;;5017918;28;20235;-82
2021/08/13 00:12:08;;;;;;;12.90;8.00;;;20.20;99.90;;;;;;5017945;28;20164;-82
2021/08/13 00:14:34;;;;;;;9.90;8.60;;;20.20;99.90;;;;;;5017746;28;20633;-82
2021/08/13 00:16:59;;;;;;;13.07;9.40;;;20.20;99.90;;;;;;5018367;28;20467;-82
2021/08/13 00:19:25;;;;;;;14.77;9.47;;;20.10;99.90;;;;;;5017532;28;20251;-82
2021/08/13 00:21:50;;;;;;;11.10;8.53;;;20.10;99.90;;;;;;4999787;28;20165;-81
2021/08/13 00:24:16;;;;;;;10.00;7.77;;;20.10;99.90;;;;;;5017553;28;20247;-82
2021/08/13 00:26:42;;;;;;;8.47;7.67;;;20.00;99.90;;;;;;5017125;28;20165;-82
2021/08/13 00:29:07;;;;;;;10.70;8.50;;;20.10;99.90;;;;;;5017580;28;20908;-82
2021/08/13 00:31:33;;;;;;;11.17;8.67;;;20.00;99.90;;;;;;5017298;28;20193;-82
2021/08/13 00:33:58;;;;;;;15.60;8.33;;;20.00;99.90;;;;;;5018277;28;20157;-82
2021/08/13 00:36:24;;;;;;;7.83;7.13;;;20.00;99.90;;;;;;5019583;28;20220;-82
2021/08/13 00:38:49;;;;;;;11.63;7.93;;;19.90;99.90;;;;;;5019921;28;20157;-81
2021/08/13 00:41:15;;;;;;;12.30;8.63;;;19.90;99.90;;;;;;5018912;28;20165;-82
2021/08/13 00:43:41;;;;;;;9.00;7.60;;;20.00;99.90;;;;;;5018750;28;20572;-82
2021/08/13 00:46:06;;;;;;;8.60;7.73;;;19.80;99.90;;;;;;5019187;28;20192;-82
2021/08/13 00:48:32;;;;;;;10.40;9.30;;;19.80;99.90;;;;;;5019581;28;20177;-81
2021/08/13 00:50:57;;;;;;;11.67;8.00;;;19.80;99.90;;;;;;5019942;28;20193;-81
2021/08/13 00:53:24;;;;;;;10.27;7.00;;;19.90;99.90;;;;;;5020561;28;20168;-81
2021/08/13 00:55:51;;;;;;;10.17;8.93;;;19.90;99.90;;;;;;5018153;28;20661;-81
2021/08/13 00:58:17;;;;;;;13.97;8.50;;;19.90;99.90;;;;;;5019986;28;20400;-82
2021/08/13 01:00:43;;;;;;;10.70;8.60;;;19.90;99.90;;;;;;5020634;28;20889;-82
2021/08/13 01:03:09;;;;;;;13.53;9.73;;;19.90;99.90;;;;;;4987042;28;20408;-82
2021/08/13 01:05:35;;;;;;;10.80;8.30;;;19.90;99.90;;;;;;5021041;28;20408;-82
2021/08/13 01:08:00;;;;;;;10.60;7.87;;;19.90;99.90;;;;;;5020521;28;20192;-82
2021/08/13 01:10:30;;;;;;;12.23;8.57;;;19.90;99.90;;;;;;5020834;28;20287;-82
2021/08/13 01:13:08;;;;;;;10.40;9.40;;;19.80;99.90;;;;;;5020668;28;20161;-82
2021/08/13 01:15:39;;;;;;;9.67;7.27;;;19.80;99.90;;;;;;5003536;28;20475;-82
2021/08/13 01:18:28;;;;;;;10.53;9.03;;;19.80;99.90;;;;;;5020579;28;20500;-81
2021/08/13 01:21:25;;;;;;;11.50;7.97;;;19.80;99.90;;;;;;5019715;28;20396;-81
2021/08/13 01:23:55;;;;;;;10.13;7.07;;;19.80;99.90;;;;;;5020659;28;20853;-81
2021/08/13 01:26:22;;;;;;;8.87;7.80;;;19.80;99.90;;;;;;5020904;28;20876;-81
2021/08/13 01:29:09;;;;;;;10.27;8.03;;;19.70;99.90;;;;;;5021047;28;20385;-82
2021/08/13 01:31:44;;;;;;;9.30;8.07;;;19.70;99.90;;;;;;5020563;28;20889;-82
2021/08/13 01:34:12;;;;;;;13.50;8.37;;;19.70;99.90;;;;;;5020125;28;20441;-81
2021/08/13 01:36:39;;;;;;;11.77;7.30;;;19.70;99.90;;;;;;5019668;28;20777;-82
2021/08/13 01:39:06;;;;;;;10.40;8.00;;;19.70;99.90;;;;;;5020359;28;20492;-82
2021/08/13 01:41:35;;;;;;;10.87;8.83;;;19.70;99.90;;;;;;5020783;28;20493;-82
2021/08/13 01:44:04;;;;;;;18.73;9.23;;;19.70;99.90;;;;;;5020784;28;20436;-82
2021/08/13 01:46:31;;;;;;;11.07;7.73;;;19.80;99.90;;;;;;5020660;28;20448;-82
2021/08/13 01:48:58;;;;;;;10.80;9.10;;;19.80;99.90;;;;;;5020907;28;20435;-82
2021/08/13 01:51:25;;;;;;;11.50;10.37;;;19.80;99.90;;;;;;5020502;28;20393;-82
2021/08/13 01:53:51;;;;;;;11.90;9.67;;;19.80;99.90;;;;;;5020545;28;20428;-82
2021/08/13 01:56:18;;;;;;;13.57;9.43;;;19.80;99.90;;;;;;5021040;28;20430;-83
2021/08/13 01:58:45;;;;;;;23.53;9.53;;;19.70;99.90;;;;;;5020717;28;20489;-82
2021/08/13 02:01:10;;;;;;;9.00;8.03;;;19.80;99.90;;;;;;5020054;28;20494;-80
2021/08/13 02:03:38;;;;;;;11.37;8.90;;;19.70;99.90;;;;;;5020579;28;20825;-82
2021/08/13 02:06:05;;;;;;;11.77;9.17;;;19.60;99.90;;;;;;5002701;28;20594;-83
2021/08/13 02:08:32;;;;;;;10.87;8.70;;;19.50;99.90;;;;;;5020068;28;20432;-82
2021/08/13 02:10:58;;;;;;;9.90;8.60;;;19.50;99.90;;;;;;5020407;28;20430;-82
2021/08/13 02:13:24;;;;;;;13.40;9.47;;;19.50;99.90;;;;;;5021039;28;20400;-82
2021/08/13 02:15:59;;;;;;;14.10;9.67;;;19.40;99.90;;;;;;5020638;28;20172;-82
2021/08/13 02:18:25;;;;;;;11.67;9.20;;;19.40;99.90;;;;;;5003054;28;20404;-82
2021/08/13 02:20:55;;;;;;;11.80;9.17;;;19.50;99.90;;;;;;5019967;28;20443;-81
2021/08/13 02:23:20;;;;;;;10.97;7.97;;;19.50;99.90;;;;;;5020975;28;20904;-83
2021/08/13 02:25:47;;;;;;;10.43;9.20;;;19.40;99.90;;;;;;5028096;28;20400;-82
2021/08/13 02:28:13;;;;;;;14.23;9.87;;;19.40;99.90;;;;;;5019094;28;20170;-81
2021/08/13 02:30:39;;;;;;;12.80;9.43;;;19.50;99.90;;;;;;5018998;28;20407;-81
2021/08/13 02:33:04;;;;;;;18.60;9.10;;;19.50;99.90;;;;;;5018846;28;20185;-81
2021/08/13 02:35:32;;;;;;;12.30;9.10;;;19.50;99.90;;;;;;5018740;28;20178;-80
2021/08/13 02:38:04;;;;;;;11.13;9.03;;;19.40;99.90;;;;;;5018089;28;20233;-81
2021/08/13 02:40:36;;;;;;;12.27;8.63;;;19.40;99.90;;;;;;5018695;28;20543;-82
2021/08/13 02:43:18;;;;;;;12.73;8.60;;;19.30;99.90;;;;;;5019173;28;20446;-82
2021/08/13 02:45:47;;;;;;;10.20;8.73;;;19.30;99.90;;;;;;5018768;28;20400;-81
2021/08/13 02:48:14;;;;;;;9.77;8.10;;;19.30;99.90;;;;;;5001520;28;20393;-81
2021/08/13 02:50:41;;;;;;;9.50;8.50;;;19.30;99.90;;;;;;5018479;28;20454;-82
2021/08/13 02:53:12;;;;;;;9.17;8.27;;;19.40;99.90;;;;;;5018581;28;20404;-82
2021/08/13 02:55:55;;;;;;;10.00;8.97;;;19.40;99.90;;;;;;5018378;28;20901;-80
2021/08/13 02:58:23;;;;;;;10.73;9.67;;;19.30;99.90;;;;;;5000795;28;20873;-82
2021/08/13 03:00:51;;;;;;;11.30;9.10;;;19.30;99.90;;;;;;5018768;28;20475;-82
2021/08/13 03:03:18;;;;;;;11.47;8.73;;;19.40;99.90;;;;;;5018246;28;20392;-82
2021/08/13 03:05:48;;;;;;;14.00;9.07;;;19.40;99.90;;;;;;5018238;28;20404;-81
2021/08/13 03:08:18;;;;;;;10.90;9.83;;;19.30;99.90;;;;;;5017769;28;20439;-82
2021/08/13 03:10:44;;;;;;;9.67;8.60;;;19.30;99.90;;;;;;5018145;28;20400;-82
2021/08/13 03:13:09;;;;;;;12.03;9.07;;;19.20;99.90;;;;;;5018401;28;20846;-81
2021/08/13 03:15:36;;;;;;;11.93;7.43;;;19.10;99.90;;;;;;5018011;28;20181;-81
2021/08/13 03:18:03;;;;;;;15.70;8.70;;;19.00;99.90;;;;;;5018308;28;20496;-82
2021/08/13 03:20:29;;;;;;;12.70;10.10;;;19.10;99.90;;;;;;5017622;28;20444;-81
2021/08/13 03:22:55;;;;;;;12.30;9.00;;;19.10;99.90;;;;;;5018022;28;20404;-82
2021/08/13 03:25:22;;;;;;;11.70;9.70;;;19.10;99.90;;;;;;5017696;28;20169;-81
2021/08/13 03:27:48;;;;;;;10.30;8.83;;;19.00;99.90;;;;;;5017892;28;20470;-82
2021/08/13 03:30:14;;;;;;;11.93;10.00;;;19.00;99.90;;;;;;5017506;28;20769;-82
2021/08/13 03:32:40;;;;;;;8.87;7.77;;;19.00;99.90;;;;;;5018777;28;20431;-81
2021/08/13 03:35:06;;;;;;;12.93;8.97;;;19.00;99.90;;;;;;5017784;28;20239;-82
2021/08/13 03:37:32;;;;;;;10.20;8.50;;;19.00;99.90;;;;;;5021725;28;20463;-79
2021/08/13 03:39:57;;;;;;;10.63;9.00;;;18.90;99.90;;;;;;5022732;28;20452;-81
2021/08/13 03:42:23;;;;;;;10.57;9.10;;;18.90;99.90;;;;;;5018037;28;20161;-81
2021/08/13 03:44:49;;;;;;;17.20;8.67;;;18.90;99.90;;;;;;5017335;28;20189;-81
2021/08/13 03:47:14;;;;;;;17.43;9.20;;;18.90;99.90;;;;;;5017294;28;20223;-80
2021/08/13 03:49:40;;;;;;;9.67;8.70;;;18.90;99.90;;;;;;5017614;28;20170;-82
2021/08/13 03:52:05;;;;;;;9.40;8.50;;;18.90;99.90;;;;;;5017347;28;20296;-82
2021/08/13 03:54:31;;;;;;;13.70;10.43;;;18.90;99.90;;;;;;5017247;28;20161;-82
2021/08/13 03:56:56;;;;;;;15.17;9.70;;;18.80;99.90;;;;;;5017532;28;20168;-82
2021/08/13 03:59:22;;;;;;;10.80;8.67;;;18.80;99.90;;;;;;5018131;28;20162;-82
2021/08/13 04:01:47;;;;;;;12.27;9.17;;;18.70;99.90;;;;;;5017545;28;20651;-83
2021/08/13 04:04:13;;;;;;;12.47;9.23;;;18.80;99.90;;;;;;5017902;28;20164;-82
2021/08/13 04:06:38;;;;;;;12.87;9.80;;;18.80;99.90;;;;;;5017018;28;20455;-82
2021/08/13 04:09:04;;;;;;;9.57;8.57;;;18.70;99.90;;;;;;4999902;28;20193;-81
2021/08/13 04:11:29;;;;;;;12.30;9.20;;;18.70;99.90;;;;;;5016772;28;20229;-81
2021/08/13 04:13:55;;;;;;;15.80;9.80;;;18.70;99.90;;;;;;5017468;28;20165;-82
2021/08/13 04:16:21;;;;;;;14.33;9.17;;;18.70;99.90;;;;;;5017899;28;20173;-82
2021/08/13 04:18:46;;;;;;;12.80;10.03;;;18.70;99.90;;;;;;5017761;28;20169;-82
2021/08/13 04:21:12;;;;;;;10.50;8.83;;;18.70;99.90;;;;;;5018071;28;20193;-82
2021/08/13 04:23:37;;;;;;;11.60;8.83;;;18.70;99.90;;;;;;5018175;28;20440;-82
2021/08/13 04:26:03;;;;;;;11.17;9.77;;;18.70;99.90;;;;;;5018644;28;20169;-82
2021/08/13 04:28:29;;;;;;;14.00;9.40;;;18.60;99.90;;;;;;5017378;28;20168;-82
2021/08/13 04:30:55;;;;;;;12.10;9.73;;;18.70;99.90;;;;;;5017451;28;20219;-82
2021/08/13 04:33:20;;;;;;;10.83;9.50;;;18.80;99.90;;;;;;5020201;28;20260;-82
2021/08/13 04:35:47;;;;;;;12.67;9.33;;;18.70;99.90;;;;;;5021234;28;20678;-82
2021/08/13 04:38:12;;;;;;;11.53;10.37;;;18.70;99.90;;;;;;5021560;28;20170;-82
2021/08/13 04:40:38;;;;;;;10.80;9.20;;;18.70;99.90;;;;;;5020940;28;20523;-82
2021/08/13 04:43:03;;;;;;;10.90;9.30;;;18.80;99.90;;;;;;5003688;28;20171;-82
2021/08/13 04:45:29;;;;;;;12.83;8.43;;;18.70;99.90;;;;;;5020787;28;20493;-82
2021/08/13 04:47:55;;;;;;;13.33;9.97;;;18.70;99.90;;;;;;5021118;28;20162;-82
2021/08/13 04:50:21;;;;;;;10.73;9.50;;;18.80;99.90;;;;;;5021027;28;20169;-82
2021/08/13 04:52:48;;;;;;;15.20;9.80;;;18.80;99.90;;;;;;5020967;28;20737;-82
2021/08/13 04:55:19;;;;;;;14.90;10.30;;;18.80;99.90;;;;;;5020584;28;20166;-83
2021/08/13 04:57:46;;;;;;;11.67;9.07;;;18.90;99.90;;;;;;5020766;28;20460;-81
2021/08/13 05:00:12;;;;;;;9.97;8.40;;;18.90;99.90;;;;;;5020804;28;20951;-82
2021/08/13 05:02:37;;;;;;;16.90;10.13;;;18.80;99.90;;;;;;5021098;28;20479;-82
2021/08/13 05:05:04;;;;;;;14.90;8.63;;;18.60;99.90;;;;;;5020725;28;20885;-82
2021/08/13 05:07:31;;;;;;;11.40;9.97;;;18.60;99.90;;;;;;5021130;28;20196;-82
2021/08/13 05:09:57;;;;;;;12.00;8.87;;;18.80;99.90;;;;;;5020098;28;20431;-82
2021/08/13 05:12:23;;;;;;;9.63;8.53;;;18.90;99.90;;;;;;5021118;28;20892;-82
2021/08/13 05:14:48;;;;;;;13.33;10.37;;;19.00;99.90;;;;;;5020938;28;20396;-82
2021/08/13 05:17:14;;;;;;;14.90;9.40;;;19.00;99.90;;;;;;5021107;28;20486;-82
2021/08/13 05:19:39;;;;;;;10.90;9.07;;;19.10;99.90;;;;;;5020777;28;20435;-81
2021/08/13 05:22:05;;;;;;;13.83;8.87;;;18.80;99.90;;;;;;5023440;28;20161;-82
2021/08/13 05:24:30;;;;;;;17.90;9.93;;;18.70;99.90;;;;;;5007718;28;20184;-81
2021/08/13 05:26:56;;;;;;;9.87;7.80;;;18.60;99.90;;;;;;5023982;28;20158;-81
2021/08/13 05:29:22;;;;;;;12.77;10.30;;;18.60;99.90;;;;;;5024790;28;20166;-81
2021/08/13 05:31:47;;;;;;;14.00;10.50;;;18.40;99.90;;;;;;5023091;28;20396;-79
2021/08/13 05:34:13;;;;;;;13.40;8.87;;;18.20;99.90;;;;;;5023099;28;20169;-80
2021/08/13 05:36:38;;;;;;;13.33;8.80;;;18.30;99.90;;;;;;5023082;28;20324;-80
2021/08/13 05:39:04;;;;;;;10.03;9.03;;;18.50;99.90;;;;;;5024145;28;20161;-79
2021/08/13 05:41:29;;;;;;;13.73;8.77;;;18.80;99.90;;;;;;5028048;28;20193;-78
2021/08/13 05:43:55;;;;;;;10.67;8.47;;;18.90;99.90;;;;;;5010318;28;20165;-82
2021/08/13 05:46:21;;;;;;;10.40;8.10;;;19.10;99.90;;;;;;5025207;28;20193;-82
2021/08/13 05:48:46;;;;;;;12.13;9.93;;;19.20;99.90;;;;;;5005743;28;20249;-82
2021/08/13 05:51:12;;;;;;;10.57;9.43;;;19.20;99.90;;;;;;5020496;28;20623;-82
2021/08/13 05:53:37;;;;;;;10.40;9.13;;;18.90;99.90;;;;;;5020833;28;20166;-82
2021/08/13 05:56:03;;;;;;;10.77;9.20;;;18.90;99.90;;;;;;5020159;28;20250;-82
2021/08/13 05:58:28;;;;;;;12.20;10.67;;;19.10;99.90;;;;;;5020045;28;20531;-82
2021/08/13 06:00:54;;;;;;;12.53;9.70;;;19.30;99.90;;;;;;5020393;28;20669;-82
2021/08/13 06:03:19;;;;;;;9.53;8.53;;;19.40;99.90;;;;;;5020104;28;20164;-82
2021/08/13 06:05:45;;;;;;;10.87;9.50;;;19.50;99.90;;;;;;5019765;28;20252;-82
2021/08/13 06:08:10;;;;;;;12.50;9.30;;;19.70;99.90;;;;;;5019802;28;20193;-82
2021/08/13 06:10:36;;;;;;;11.07;9.20;;;19.60;99.90;;;;;;5020044;28;20169;-82
2021/08/13 06:13:01;;;;;;;9.70;8.10;;;19.70;99.90;;;;;;5020064;28;20161;-82
2021/08/13 06:15:27;;;;;;;11.97;8.13;;;19.80;99.90;;;;;;5019929;28;20169;-82
2021/08/13 06:17:52;;;;;;;9.93;8.80;;;19.80;99.90;;;;;;5002676;28;20201;-82
2021/08/13 06:20:21;;;;;;;13.63;9.63;;;19.90;99.90;;;;;;5019933;28;20650;-82
2021/08/13 06:22:47;;;;;;;11.57;9.93;;;20.00;99.90;;;;;;5019491;28;20157;-83
2021/08/13 06:25:12;;;;;;;10.73;9.63;;;19.90;99.90;;;;;;5002539;28;20512;-83
2021/08/13 06:27:41;;;;;;;18.43;9.90;;;19.90;99.90;;;;;;5002296;28;20844;-83
2021/08/13 06:30:10;;;;;;;13.23;9.83;;;19.90;99.90;;;;;;5022877;28;20172;-82
2021/08/13 06:32:35;;;;;;;10.73;9.07;;;19.80;99.90;;;;;;5021940;28;20467;-82
2021/08/13 06:35:01;;;;;;;12.13;8.80;;;19.70;99.90;;;;;;5020030;28;20393;-82
2021/08/13 06:37:26;;;;;;;11.73;9.97;;;19.60;99.90;;;;;;5019325;28;20235;-82
2021/08/13 06:39:52;;;;;;;10.83;9.00;;;19.60;99.90;;;;;;5020295;28;20232;-82
2021/08/13 06:42:17;;;;;;;15.30;9.37;;;19.60;99.90;;;;;;5020070;28;20200;-82
2021/08/13 06:44:43;;;;;;;11.67;9.50;;;19.80;99.90;;;;;;5019967;28;20637;-82
2021/08/13 06:47:09;;;;;;;8.90;7.80;;;20.00;99.90;;;;;;5019908;28;20659;-82
2021/08/13 06:49:54;;;;;;;15.20;9.73;;;20.10;99.90;;;;;;4964946;28;20197;-83
2021/08/13 06:52:19;;;;;;;11.73;9.20;;;20.40;99.90;;;;;;4990784;28;20465;-83
2021/08/13 06:54:45;;;;;;;12.00;10.10;;;20.30;99.90;;;;;;4997331;28;20182;-82
2021/08/13 06:57:10;;;;;;;12.57;10.73;;;20.40;99.90;;;;;;4997892;28;20173;-82
2021/08/13 06:59:36;;;;;;;14.33;9.70;;;20.30;99.90;;;;;;4981881;28;20206;-82
2021/08/13 07:02:01;;;;;;;14.73;11.67;;;20.50;99.90;;;;;;4998359;28;20222;-82
2021/08/13 07:04:27;;;;;;;14.27;11.10;;;20.20;99.90;;;;;;5007338;28;20258;-80
2021/08/13 07:06:52;;;;;;;16.63;11.80;;;20.30;99.90;;;;;;5013827;28;20566;-80
2021/08/13 07:09:18;;;;;;;15.80;10.57;;;20.40;99.90;;;;;;4985702;28;20205;-83
2021/08/13 07:11:43;;;;;;;13.47;9.93;;;20.30;99.90;;;;;;4997464;28;20495;-83
2021/08/13 07:14:09;;;;;;;11.20;10.00;;;20.30;99.90;;;;;;4998591;28;20174;-83
2021/08/13 07:16:34;;;;;;;17.90;9.63;;;20.30;99.90;;;;;;4997330;28;20193;-83
2021/08/13 07:19:00;;;;;;;11.00;9.17;;;20.70;99.90;;;;;;4981956;28;20252;-83
2021/08/13 07:21:25;;;;;;;21.83;19.77;;;20.50;99.90;;;;;;5031398;28;20238;-80
2021/08/13 07:23:51;;;;;;;11.80;9.53;;;20.50;99.90;;;;;;5050011;28;20275;-82
2021/08/13 07:26:16;;;;;;;15.53;10.53;;;20.40;99.90;;;;;;5048757;28;20152;-79
2021/08/13 07:28:42;;;;;;;15.13;10.93;;;20.70;99.90;;;;;;5049621;28;20161;-79
2021/08/13 07:31:07;;;;;;;16.27;10.40;;;20.90;99.90;;;;;;5051742;28;20168;-78
2021/08/13 07:33:32;;;;;;;11.63;9.50;;;21.00;99.90;;;;;;5051820;28;20582;-80
2021/08/13 07:35:58;;;;;;;14.00;10.93;;;21.10;99.90;;;;;;5047385;28;20701;-81
2021/08/13 07:38:23;;;;;;;11.40;9.13;;;20.90;99.90;;;;;;5052402;28;20260;-80
2021/08/13 07:40:49;;;;;;;10.63;9.53;;;20.80;99.90;;;;;;5041983;28;20594;-83
2021/08/13 07:43:16;;;;;;;12.47;9.87;;;20.80;99.90;;;;;;5039010;28;20185;-82
2021/08/13 07:45:41;;;;;;;13.43;9.70;;;20.80;99.90;;;;;;5038218;28;20444;-82
2021/08/13 07:48:07;;;;;;;14.90;9.83;;;21.10;99.90;;;;;;5037990;28;20176;-81
2021/08/13 07:50:32;;;;;;;9.83;8.83;;;21.20;99.90;;;;;;5037145;28;20172;-82
2021/08/13 07:52:58;;;;;;;9.60;8.67;;;21.10;99.90;;;;;;5037993;28;20200;-82
2021/08/13 07:55:23;;;;;;;10.90;9.30;;;21.10;99.90;;;;;;5038230;28;20283;-82
2021/08/13 07:57:49;;;;;;;13.67;12.23;;;21.20;99.90;;;;;;5038216;28;20575;-82
2021/08/13 08:00:15;;;;;;;11.80;9.70;;;21.20;99.90;;;;;;5037899;28;20586;-83
2021/08/13 08:02:41;;;;;;;12.13;9.00;;;21.60;99.90;;;;;;5037961;28;20165;-83
2021/08/13 08:05:07;;;;;;;10.87;9.07;;;21.90;99.90;;;;;;5038844;28;20145;-82
2021/08/13 08:07:34;;;;;;;10.00;8.83;;;22.10;99.90;;;;;;5020278;28;20196;-82
2021/08/13 08:09:59;;;;;;;12.13;9.47;;;22.30;99.90;;;;;;5037475;28;20490;-83
2021/08/13 08:12:25;;;;;;;11.07;9.00;;;22.20;99.90;;;;;;5037905;28;20402;-83
2021/08/13 08:14:50;;;;;;;9.50;8.60;;;22.20;99.90;;;;;;5038060;28;20264;-82
2021/08/13 08:17:16;;;;;;;9.80;8.87;;;22.40;99.90;;;;;;5038079;28;20550;-83
2021/08/13 08:19:41;;;;;;;12.53;8.53;;;22.60;99.90;;;;;;5037884;28;20177;-82
2021/08/13 08:22:07;;;;;;;13.63;9.10;;;22.80;99.90;;;;;;5038367;28;20157;-82
2021/08/13 08:24:33;;;;;;;9.40;8.20;;;22.60;99.90;;;;;;5037854;28;20494;-83
2021/08/13 08:26:58;;;;;;;14.83;9.57;;;22.70;99.90;;;;;;5019442;28;20171;-82
2021/08/13 08:29:24;;;;;;;12.57;9.63;;;22.80;99.90;;;;;;5037220;28;20161;-82
2021/08/13 08:31:50;;;;;;;12.23;11.03;;;23.00;99.90;;;;;;5037306;28;20164;-83
2021/08/13 08:34:15;;;;;;;12.40;9.20;;;23.10;99.90;;;;;;5037697;28;20592;-82
2021/08/13 08:36:41;;;;;;;9.77;8.67;;;23.30;99.90;;;;;;5044919;28;20318;-82
2021/08/13 08:39:06;;;;;;;10.80;9.70;;;23.40;99.90;;;;;;5057047;28;20524;-83
2021/08/13 08:41:32;;;;;;;10.57;8.97;;;23.20;99.90;;;;;;5057869;28;20203;-83
2021/08/13 08:43:58;;;;;;;9.73;8.23;;;23.10;99.90;;;;;;5055628;28;20165;-83
2021/08/13 08:46:24;;;;;;;15.73;9.70;;;23.40;99.90;;;;;;5056541;28;20243;-83
2021/08/13 08:48:52;;;;;;;15.73;10.07;;;23.60;99.90;;;;;;5057344;28;20188;-83
2021/08/13 08:51:18;;;;;;;15.27;11.33;;;23.60;99.90;;;;;;5056750;28;20407;-83
2021/08/13 08:53:50;;;;;;;19.10;10.10;;;23.80;99.90;;;;;;5057492;28;20688;-83
2021/08/13 08:56:17;;;;;;;10.70;9.70;;;23.60;99.90;;;;;;5056434;28;20814;-83
2021/08/13 08:58:46;;;;;;;11.30;10.00;;;23.90;99.90;;;;;;5057176;28;20398;-83
2021/08/13 09:01:14;;;;;;;18.10;12.10;;;23.70;99.90;;;;;;5057103;28;20442;-83
2021/08/13 09:03:41;;;;;;;15.53;12.37;;;23.90;99.90;;;;;;5055875;28;20533;-83
2021/08/13 09:06:07;;;;;;;11.63;10.43;;;24.00;99.90;;;;;;5057503;28;20716;-82
2021/08/13 09:08:35;;;;;;;13.03;10.50;;;24.00;99.90;;;;;;5055711;28;20433;-83
2021/08/13 09:11:00;;;;;;;11.47;9.37;;;24.00;99.90;;;;;;5057463;28;20230;-83
2021/08/13 09:13:26;;;;;;;10.50;9.50;;;24.30;99.90;;;;;;5056698;28;20398;-83
2021/08/13 09:15:52;;;;;;;12.60;9.73;;;24.20;99.90;;;;;;5057070;28;20230;-83
2021/08/13 09:18:21;;;;;;;9.83;8.83;;;24.60;99.90;;;;;;5058163;28;20203;-83
2021/08/13 09:20:54;;;;;;;11.50;9.40;;;24.90;99.90;;;;;;5059286;28;20188;-83
2021/08/13 09:23:44;;;;;;;10.77;9.70;;;25.20;99.90;;;;;;5061944;28;20907;-83
2021/08/13 09:26:17;;;;;;;9.63;8.57;;;25.10;99.90;;;;;;5060606;28;20398;-82
2021/08/13 09:29:00;;;;;;;16.80;11.27;;;25.10;99.90;;;;;;5060337;28;20402;-83
2021/08/13 09:31:28;;;;;;;13.03;9.63;;;25.10;99.90;;;;;;5062350;28;20467;-82
2021/08/13 09:33:57;;;;;;;10.00;8.97;;;25.30;99.90;;;;;;5060512;28;20482;-83
2021/08/13 09:36:25;;;;;;;9.90;8.00;;;25.50;99.90;;;;;;5060789;28;20480;-83
2021/08/13 09:39:08;;;;;;;10.10;8.83;;;25.80;99.90;;;;;;5052834;28;20902;-83
2021/08/13 09:41:51;;;;;;;16.57;12.07;;;25.70;99.90;;;;;;5060314;28;20936;-83
2021/08/13 09:44:32;;;;;;;14.67;9.37;;;25.60;99.90;;;;;;5060290;28;20448;-82
2021/08/13 09:47:00;;;;;;;12.20;9.37;;;25.50;99.90;;;;;;5060097;28;20402;-83
2021/08/13 09:49:28;;;;;;;12.80;9.70;;;25.80;99.90;;;;;;5058720;28;20760;-83
2021/08/13 09:51:53;;;;;;;11.73;10.00;;;25.60;99.90;;;;;;5061307;28;20246;-83
2021/08/13 09:54:26;;;;;;;8.93;8.20;;;25.80;99.90;;;;;;5066611;28;20459;-83
2021/08/13 09:56:51;;;;;;;10.60;9.60;;;26.30;99.90;;;;;;5066893;28;20175;-83
2021/08/13 09:59:21;;;;;;;11.43;8.13;;;26.70;99.90;;;;;;5062667;28;20743;-83
2021/08/13 10:01:49;;;;;;;15.10;8.80;;;27.10;99.90;;;;;;5058660;28;20183;-82
2021/08/13 10:04:18;;;;;;;12.03;7.77;;;26.80;99.90;;;;;;5042445;28;20875;-83
2021/08/13 10:06:44;;;;;;;11.43;9.67;;;26.70;99.90;;;;;;5060434;28;20855;-83
2021/08/13 10:09:25;;;;;;;9.03;8.13;;;26.80;99.90;;;;;;5072617;28;20421;-83
2021/08/13 10:12:00;;;;;;;11.00;9.90;;;26.70;99.90;;;;;;5071462;28;20404;-83
2021/08/13 10:14:36;;;;;;;9.57;7.83;;;26.90;99.90;;;;;;5067383;28;20439;-83
2021/08/13 10:17:16;;;;;;;9.93;8.07;;;27.30;99.90;;;;;;5072178;28;20396;-83
2021/08/13 10:19:46;;;;;;;9.40;8.03;;;27.60;99.90;;;;;;5074986;28;20441;-82
2021/08/13 10:22:13;;;;;;;10.03;9.00;;;26.90;99.90;;;;;;5069438;28;20477;-83
2021/08/13 10:24:39;;;;;;;8.97;8.07;;;27.20;99.90;;;;;;5073860;28;20537;-81
2021/08/13 10:27:06;;;;;;;8.90;8.10;;;27.70;99.90;;;;;;5074117;28;20381;-83
2021/08/13 10:29:35;;;;;;;9.37;8.47;;;27.20;99.90;;;;;;5046719;28;20404;-83
2021/08/13 10:32:01;;;;;;;7.43;6.73;;;27.40;99.90;;;;;;5060993;28;20390;-83
2021/08/13 10:34:27;;;;;;;7.87;6.90;;;28.10;99.90;;;;;;5060393;28;20414;-83
2021/08/13 10:36:54;;;;;;;8.87;7.10;;;28.60;99.90;;;;;;5051979;28;20224;-82
2021/08/13 10:39:21;;;;;;;7.93;7.33;;;28.20;99.90;;;;;;5039917;28;20164;-82
2021/08/13 10:41:52;;;;;;;7.87;7.07;;;27.90;99.90;;;;;;5040077;28;20537;-83
2021/08/13 10:44:21;;;;;;;9.40;8.40;;;27.80;99.90;;;;;;5041032;28;20833;-83
2021/08/13 10:46:48;;;;;;;8.00;7.20;;;27.70;99.90;;;;;;5041742;28;20399;-83
2021/08/13 10:49:17;;;;;;;9.13;8.23;;;28.60;99.90;;;;;;5052876;28;20394;-82
2021/08/13 10:51:43;;;;;;;13.00;7.80;;;28.60;99.90;;;;;;5050287;28;20449;-83
2021/08/13 10:54:13;;;;;;;8.33;7.53;;;28.70;99.90;;;;;;5022239;28;20391;-84
2021/08/13 10:56:42;;;;;;;13.00;8.53;;;28.90;99.90;;;;;;5039516;28;20246;-83
2021/08/13 10:59:09;;;;;;;8.00;6.80;;;28.90;99.90;;;;;;5021885;28;20391;-84
2021/08/13 11:01:35;;;;;;;7.83;7.03;;;29.10;99.90;;;;;;5039941;28;20458;-82
2021/08/13 11:04:14;;;;;;;7.83;7.13;;;28.60;99.90;;;;;;5039260;28;20465;-82
2021/08/13 11:06:42;;;;;;;7.60;6.90;;;28.90;99.90;;;;;;5038876;28;20148;-83
2021/08/13 11:09:10;;;;;;;7.90;7.20;;;29.10;99.90;;;;;;5021106;28;20442;-83
2021/08/13 11:12:03;;;;;;;9.00;8.10;;;29.10;99.90;;;;;;5039905;28;20725;-82
2021/08/13 11:14:33;;;;;;;9.63;7.13;;;29.70;99.90;;;;;;5040436;28;20418;-83
2021/08/13 11:17:00;;;;;;;9.33;6.27;;;30.10;99.90;;;;;;5040551;28;20406;-83
2021/08/13 11:19:26;;;;;;;7.20;6.50;;;29.00;99.90;;;;;;5039060;28;20395;-83
2021/08/13 11:21:54;;;;;;;7.30;6.70;;;29.70;99.90;;;;;;5039704;28;20516;-83
2021/08/13 11:24:22;;;;;;;7.60;6.90;;;29.20;99.90;;;;;;5022197;28;20172;-83
2021/08/13 11:27:08;;;;;;;8.50;6.90;;;29.40;99.90;;;;;;5039532;28;20749;-83
2021/08/13 11:29:37;;;;;;;9.03;8.10;;;29.40;99.90;;;;;;5024126;28;20390;-83
2021/08/13 11:32:27;;;;;;;9.70;8.00;;;29.90;99.90;;;;;;5038770;28;20812;-83
2021/08/13 11:35:04;;;;;;;9.20;6.87;;;30.20;99.90;;;;;;5018457;28;20432;-83
2021/08/13 11:37:45;;;;;;;9.83;8.10;;;29.60;99.90;;;;;;5020555;28;20223;-83
2021/08/13 11:40:38;;;;;;;8.03;7.03;;;30.50;99.90;;;;;;5020971;28;20196;-83
2021/08/13 11:43:04;;;;;;;8.82;7.97;;;29.70;99.90;;;;;;5009228;28;20475;-84
2021/08/13 11:45:41;;;;;;;8.27;7.47;;;29.80;99.90;;;;;;5023065;28;20195;-83
2021/08/13 11:48:08;;;;;;;9.27;7.70;;;31.00;99.90;;;;;;5023870;28;20166;-84
2021/08/13 11:50:34;;;;;;;9.70;8.77;;;30.70;99.90;;;;;;5003390;28;20168;-83
2021/08/13 11:53:00;;;;;;;12.73;11.50;;;31.10;99.90;;;;;;5020884;28;20219;-84
2021/08/13 11:55:27;;;;;;;10.57;8.95;;;30.40;99.90;;;;;;5020645;28;20177;-83
2021/08/13 11:57:55;;;;;;;10.43;8.55;;;30.20;99.90;;;;;;5021899;28;20161;-84
2021/08/13 12:00:24;;;;;;;8.48;7.78;;;31.00;99.90;;;;;;5002939;28;20193;-84
2021/08/13 12:03:07;;;;;;;8.38;6.10;;;31.10;99.90;;;;;;5019974;28;20306;-83
2021/08/13 12:05:35;;;;;;;6.55;6.05;;;31.50;99.90;;;;;;5018307;28;20224;-83
2021/08/13 12:08:02;;;;;;;6.25;5.75;;;33.00;99.90;;;;;;5019728;28;20200;-83
2021/08/13 12:10:29;;;;;;;6.53;5.93;;;33.30;99.90;;;;;;5018067;28;20177;-83
2021/08/13 12:12:55;;;;;;;7.72;6.97;;;33.10;99.90;;;;;;5019047;28;20165;-83
2021/08/13 12:15:36;;;;;;;8.43;6.53;;;34.00;99.90;;;;;;5019699;28;20161;-84
2021/08/13 12:18:03;;;;;;;6.72;6.13;;;34.10;99.90;;;;;;4946234;28;20229;-83
2021/08/13 12:20:29;;;;;;;6.30;5.70;;;34.50;99.20;;;;;;4977995;28;20210;-83
2021/08/13 12:23:04;;;;;;;6.75;6.05;;;34.00;97.30;;;;;;4977168;28;20185;-83
2021/08/13 12:25:32;;;;;;;7.13;6.40;;;33.90;99.10;;;;;;4978150;28;20250;-83
2021/08/13 12:27:58;;;;;;;6.18;5.68;;;34.50;98.60;;;;;;4978359;28;20214;-83
2021/08/13 12:30:23;;;;;;;7.82;7.13;;;34.70;97.60;;;;;;4977528;28;20173;-83
2021/08/13 12:32:51;;;;;;;7.25;6.60;;;34.90;97.30;;;;;;4978115;28;20190;-83
2021/08/13 12:35:17;;;;;;;6.78;6.18;;;34.80;97.60;;;;;;4978175;28;20253;-84
2021/08/13 12:37:44;;;;;;;6.95;6.25;;;35.00;96.80;;;;;;4977832;28;20225;-84
2021/08/13 12:40:12;;;;;;;8.57;6.47;;;35.00;97.40;;;;;;4978549;28;20193;-84